Terminal Aerodrome Forecast
Issued by NWS Grand Rapids, MI

Home | Current Version | Previous Version | Text Only | Print | Product List | Glossary On
Versions: 1 2 3 4 5 6 7 8 9 10 11 12 13 14 15
190
FTUS43 KGRR 202322
TAFGRR
TAF
KGRR 202322Z 2100/2124 13015KT P6SM OVC240
     FM210300 14012KT P6SM BKN080 OVC200 WS020/20040KT
     FM211100 18009KT 3SM -SHRA BR OVC008
     FM211300 20005KT 1SM RA BR OVC003
     FM211500 22004KT 1/2SM FG VV001
     FM211700 24008KT 5SM BR OVC015
     FM211900 25007KT P6SM OVC250=

USA.gov is the U.S. government's official web portal to all federal, state and local government web resources and services.